createdAt,value
2022-11-04T00:00:30.762Z,19.58
2022-11-04T00:01:30.792Z,19.58
2022-11-04T00:02:31.185Z,19.58
2022-11-04T00:03:31.011Z,19.58
2022-11-04T00:04:31.070Z,19.58
2022-11-04T00:05:31.171Z,19.58
2022-11-04T00:06:31.250Z,19.58
2022-11-04T00:07:31.347Z,19.57
2022-11-04T00:08:31.471Z,19.57
2022-11-04T00:09:31.535Z,19.57
2022-11-04T00:10:31.610Z,19.57
2022-11-04T00:11:31.693Z,19.57
2022-11-04T00:12:31.787Z,19.57
2022-11-04T00:13:31.846Z,19.57
2022-11-04T00:14:32.038Z,19.56
2022-11-04T00:15:32.021Z,19.56
2022-11-04T00:16:32.090Z,19.55
2022-11-04T00:17:32.187Z,19.55
2022-11-04T00:18:32.307Z,19.55
2022-11-04T00:19:32.353Z,19.55
2022-11-04T00:20:32.564Z,19.55
2022-11-04T00:21:38.479Z,19.55
2022-11-04T00:22:32.599Z,19.55
2022-11-04T00:23:32.686Z,19.55
2022-11-04T00:24:32.780Z,19.55
2022-11-04T00:25:32.995Z,19.55
2022-11-04T00:26:32.931Z,19.55
2022-11-04T00:27:33.017Z,19.54
2022-11-04T00:28:33.119Z,19.54
2022-11-04T00:29:33.279Z,19.54
2022-11-04T00:30:33.296Z,19.54
2022-11-04T00:31:33.396Z,19.54
2022-11-04T00:32:33.500Z,19.54
2022-11-04T00:33:33.562Z,19.54
2022-11-04T00:34:33.626Z,19.54
2022-11-04T00:35:33.712Z,19.54
2022-11-04T00:36:33.812Z,19.54
2022-11-04T00:37:33.916Z,19.54
2022-11-04T00:38:34.107Z,19.54
2022-11-04T00:39:34.090Z,19.53
2022-11-04T00:40:34.164Z,19.53
2022-11-04T00:41:34.265Z,19.53
2022-11-04T00:42:34.357Z,19.53
2022-11-04T00:43:34.557Z,19.53
2022-11-04T00:44:34.541Z,19.53
2022-11-04T00:45:34.637Z,19.53
2022-11-04T00:46:34.712Z,19.53
2022-11-04T00:47:34.808Z,19.53
2022-11-04T00:48:34.873Z,19.53
2022-11-04T00:49:34.987Z,19.53
2022-11-04T00:50:35.046Z,19.53
2022-11-04T00:51:35.106Z,19.53
2022-11-04T00:52:41.191Z,19.53
2022-11-04T00:53:35.291Z,19.53
2022-11-04T00:54:35.377Z,19.52
2022-11-04T00:55:35.473Z,19.52
2022-11-04T00:56:35.557Z,19.52
2022-11-04T00:57:35.647Z,19.52
2022-11-04T00:58:35.722Z,19.52
2022-11-04T00:59:35.819Z,19.53
2022-11-04T01:00:35.888Z,19.53
2022-11-04T01:01:36.201Z,19.52
2022-11-04T01:02:36.189Z,19.52
2022-11-04T01:03:36.179Z,19.52
2022-11-04T01:04:36.272Z,19.52
2022-11-04T01:05:36.410Z,19.52
2022-11-04T01:06:36.436Z,19.52
2022-11-04T01:07:42.556Z,19.52
2022-11-04T01:08:36.602Z,19.52
2022-11-04T01:09:36.695Z,19.51
2022-11-04T01:10:36.787Z,19.51
2022-11-04T01:11:36.880Z,19.51
2022-11-04T01:12:36.987Z,19.51
2022-11-04T01:13:37.091Z,19.51
2022-11-04T01:14:37.142Z,19.52
2022-11-04T01:15:37.199Z,19.51
2022-11-04T01:16:37.290Z,19.51
2022-11-04T01:17:37.348Z,19.51
2022-11-04T01:18:37.450Z,19.51
2022-11-04T01:19:37.628Z,19.51
2022-11-04T01:20:37.603Z,19.51
2022-11-04T01:21:37.674Z,19.50
2022-11-04T01:22:37.747Z,19.50
2022-11-04T01:23:43.800Z,19.51
2022-11-04T01:24:37.889Z,19.51
2022-11-04T01:25:37.982Z,19.51
2022-11-04T01:26:38.046Z,19.51
2022-11-04T01:27:38.125Z,19.50
2022-11-04T01:28:38.209Z,19.51
2022-11-04T01:29:38.294Z,19.51
2022-11-04T01:30:38.397Z,19.51
2022-11-04T01:31:38.553Z,19.51
2022-11-04T01:32:38.512Z,19.51
2022-11-04T01:33:38.576Z,19.51
2022-11-04T01:34:42.449Z,19.51
2022-11-04T01:35:38.741Z,19.50
2022-11-04T01:36:38.836Z,19.50
2022-11-04T01:37:39.050Z,19.50
2022-11-04T01:38:39.025Z,19.50
2022-11-04T01:39:39.092Z,19.50
2022-11-04T01:40:39.157Z,19.50
2022-11-04T01:41:39.248Z,19.51
2022-11-04T01:42:39.350Z,19.51
2022-11-04T01:43:39.569Z,19.51
2022-11-04T01:44:39.539Z,19.51
2022-11-04T01:45:39.623Z,19.50
2022-11-04T01:46:39.731Z,19.50
2022-11-04T01:47:39.811Z,19.50
2022-11-04T01:48:39.940Z,19.50
2022-11-04T01:49:43.364Z,19.50
2022-11-04T01:50:40.074Z,19.50
2022-11-04T01:51:40.150Z,19.50
2022-11-04T01:52:40.246Z,19.50
2022-11-04T01:53:40.346Z,19.50
2022-11-04T01:54:46.989Z,19.50
2022-11-04T01:55:40.545Z,19.50
2022-11-04T01:56:40.599Z,19.49
2022-11-04T01:57:40.702Z,19.49
2022-11-04T01:58:40.796Z,19.49
2022-11-04T01:59:40.853Z,19.49
2022-11-04T02:00:41.040Z,19.49
2022-11-04T02:01:41.114Z,19.49
2022-11-04T02:02:41.174Z,19.49
2022-11-04T02:03:41.298Z,19.49
2022-11-04T02:04:41.277Z,19.49
2022-11-04T02:05:41.343Z,19.49
2022-11-04T02:06:41.545Z,19.49
2022-11-04T02:07:41.525Z,19.48
2022-11-04T02:08:41.586Z,19.48
2022-11-04T02:09:41.679Z,19.48
2022-11-04T02:10:41.779Z,19.48
2022-11-04T02:11:41.876Z,19.48
2022-11-04T02:12:41.942Z,19.49
2022-11-04T02:13:42.017Z,19.49
2022-11-04T02:14:42.092Z,19.48
2022-11-04T02:15:42.182Z,19.48
2022-11-04T02:16:42.282Z,19.48
2022-11-04T02:17:42.385Z,19.48
2022-11-04T02:18:42.576Z,19.48
2022-11-04T02:19:42.560Z,19.48
2022-11-04T02:20:42.657Z,19.48
2022-11-04T02:21:42.707Z,19.48
2022-11-04T02:22:42.771Z,19.48
2022-11-04T02:23:42.871Z,19.47
2022-11-04T02:24:43.064Z,19.47
2022-11-04T02:25:49.034Z,19.47
2022-11-04T02:26:43.131Z,19.47
2022-11-04T02:27:43.206Z,19.47
2022-11-04T02:28:43.293Z,19.46
2022-11-04T02:29:43.376Z,19.46
2022-11-04T02:30:43.565Z,19.46
2022-11-04T02:31:43.547Z,19.46
2022-11-04T02:32:43.648Z,19.46
2022-11-04T02:33:43.743Z,19.46
2022-11-04T02:34:43.827Z,19.47
2022-11-04T02:35:43.928Z,19.47
2022-11-04T02:36:44.140Z,19.47
2022-11-04T02:37:44.141Z,19.47
2022-11-04T02:38:44.178Z,19.47
2022-11-04T02:39:44.268Z,19.47
2022-11-04T02:40:44.363Z,19.47
2022-11-04T02:41:44.443Z,19.46
2022-11-04T02:42:44.542Z,19.46
2022-11-04T02:43:44.622Z,19.46
2022-11-04T02:44:44.686Z,19.46
2022-11-04T02:45:44.776Z,19.47
2022-11-04T02:46:44.880Z,19.47
2022-11-04T02:47:44.977Z,19.46
2022-11-04T02:48:45.069Z,19.46
2022-11-04T02:49:45.122Z,19.46
2022-11-04T02:50:45.221Z,19.46
2022-11-04T02:51:45.299Z,19.46
2022-11-04T02:52:50.240Z,19.46
2022-11-04T02:53:45.479Z,19.46
2022-11-04T02:54:45.520Z,19.47
2022-11-04T02:55:45.579Z,19.47
2022-11-04T02:56:51.621Z,19.47
2022-11-04T02:57:45.737Z,19.46
2022-11-04T02:58:45.800Z,19.46
2022-11-04T02:59:45.954Z,19.46
2022-11-04T03:00:46.075Z,19.46
2022-11-04T03:01:46.291Z,19.46
2022-11-04T03:02:46.125Z,19.46
2022-11-04T03:03:46.216Z,19.46
2022-11-04T03:04:46.356Z,19.45
2022-11-04T03:05:46.498Z,19.45
2022-11-04T03:06:46.429Z,19.45
2022-11-04T03:07:46.496Z,19.45
2022-11-04T03:08:46.592Z,19.45
2022-11-04T03:09:46.790Z,19.45
2022-11-04T03:10:46.763Z,19.45
2022-11-04T03:11:46.940Z,19.45
2022-11-04T03:12:46.919Z,19.45
2022-11-04T03:13:47.023Z,19.46
2022-11-04T03:14:47.113Z,19.46
2022-11-04T03:15:47.178Z,19.45
2022-11-04T03:16:47.273Z,19.45
2022-11-04T03:17:47.450Z,19.45
2022-11-04T03:18:47.406Z,19.45
2022-11-04T03:19:47.476Z,19.45
2022-11-04T03:20:47.571Z,19.45
2022-11-04T03:21:47.672Z,19.45
2022-11-04T03:22:47.733Z,19.45
2022-11-04T03:23:47.851Z,19.46
2022-11-04T03:24:47.894Z,19.46
2022-11-04T03:25:47.991Z,19.46
2022-11-04T03:26:48.097Z,19.46
2022-11-04T03:27:54.146Z,19.46
2022-11-04T03:28:48.389Z,19.45
2022-11-04T03:29:48.373Z,19.45
2022-11-04T03:30:48.439Z,19.45
2022-11-04T03:31:48.487Z,19.45
2022-11-04T03:32:48.578Z,19.45
2022-11-04T03:33:48.658Z,19.45
2022-11-04T03:34:48.713Z,19.45
2022-11-04T03:35:48.858Z,19.44
2022-11-04T03:36:48.934Z,19.44
2022-11-04T03:37:49.003Z,19.44
2022-11-04T03:38:49.065Z,19.44
2022-11-04T03:39:49.159Z,19.44
2022-11-04T03:40:49.257Z,19.44
2022-11-04T03:41:49.338Z,19.44
2022-11-04T03:42:49.851Z,19.44
2022-11-04T03:43:49.522Z,19.44
2022-11-04T03:44:49.616Z,19.45
2022-11-04T03:45:49.823Z,19.45
2022-11-04T03:46:49.754Z,19.45
2022-11-04T03:47:49.859Z,19.45
2022-11-04T03:48:49.952Z,19.45
2022-11-04T03:49:50.047Z,19.44
2022-11-04T03:50:50.135Z,19.45
2022-11-04T03:51:50.239Z,19.45
2022-11-04T03:52:50.329Z,19.45
2022-11-04T03:53:50.413Z,19.45
2022-11-04T03:54:50.506Z,19.45
2022-11-04T03:55:50.606Z,19.45
2022-11-04T03:56:50.795Z,19.45
2022-11-04T03:57:50.741Z,19.44
2022-11-04T03:58:56.794Z,19.44
2022-11-04T03:59:50.929Z,19.44
2022-11-04T04:00:51.054Z,19.43
2022-11-04T04:01:51.655Z,19.43
2022-11-04T04:02:51.149Z,19.43
2022-11-04T04:03:51.207Z,19.43
2022-11-04T04:04:51.277Z,19.43
2022-11-04T04:05:51.358Z,19.43
2022-11-04T04:06:51.450Z,19.43
2022-11-04T04:07:51.548Z,19.42
2022-11-04T04:08:51.631Z,19.42
2022-11-04T04:09:51.717Z,19.42
2022-11-04T04:10:51.786Z,19.42
2022-11-04T04:11:51.867Z,19.42
2022-11-04T04:12:51.937Z,19.42
2022-11-04T04:13:52.129Z,19.42
2022-11-04T04:14:52.092Z,19.42
2022-11-04T04:15:52.193Z,19.42
2022-11-04T04:16:52.257Z,19.43
2022-11-04T04:17:52.312Z,19.43
2022-11-04T04:18:55.671Z,19.43
2022-11-04T04:19:52.563Z,19.43
2022-11-04T04:20:52.601Z,19.43
2022-11-04T04:21:52.603Z,19.43
2022-11-04T04:22:52.690Z,19.43
2022-11-04T04:23:52.769Z,19.43
2022-11-04T04:24:52.831Z,19.43
2022-11-04T04:25:52.953Z,19.43
2022-11-04T04:26:53.018Z,19.43
2022-11-04T04:27:53.106Z,19.43
2022-11-04T04:28:53.161Z,19.43
2022-11-04T04:29:59.192Z,19.43
2022-11-04T04:30:57.682Z,19.43
2022-11-04T04:31:53.505Z,19.42
2022-11-04T04:32:53.448Z,19.42
2022-11-04T04:33:53.514Z,19.41
2022-11-04T04:34:53.573Z,19.41
2022-11-04T04:35:53.657Z,19.41
2022-11-04T04:36:53.755Z,19.42
2022-11-04T04:37:53.965Z,19.42
2022-11-04T04:38:53.938Z,19.42
2022-11-04T04:39:54.033Z,19.42
2022-11-04T04:40:54.166Z,19.41
2022-11-04T04:41:54.222Z,19.41
2022-11-04T04:42:54.276Z,19.41
2022-11-04T04:43:54.456Z,19.41
2022-11-04T04:44:54.439Z,19.41
2022-11-04T04:45:54.500Z,19.41
2022-11-04T04:46:54.575Z,19.41
2022-11-04T04:47:54.662Z,19.41
2022-11-04T04:48:54.763Z,19.41
2022-11-04T04:49:54.984Z,19.41
2022-11-04T04:50:54.956Z,19.41
2022-11-04T04:51:55.088Z,19.41
2022-11-04T04:52:55.155Z,19.41
2022-11-04T04:53:55.211Z,19.41
2022-11-04T04:54:55.314Z,19.41
2022-11-04T04:55:55.424Z,19.41
2022-11-04T04:56:55.504Z,19.41
2022-11-04T04:57:55.611Z,19.41
2022-11-04T04:58:55.710Z,19.41
2022-11-04T04:59:55.757Z,19.41
2022-11-04T05:01:02.148Z,19.41
2022-11-04T05:01:56.077Z,19.41
2022-11-04T05:02:56.010Z,19.40
2022-11-04T05:03:56.109Z,19.40
2022-11-04T05:04:56.316Z,19.40
2022-11-04T05:05:58.694Z,19.40
2022-11-04T05:06:56.380Z,19.40
2022-11-04T05:07:56.464Z,19.40
2022-11-04T05:08:56.557Z,19.40
2022-11-04T05:09:56.613Z,19.41
2022-11-04T05:10:56.710Z,19.42
2022-11-04T05:11:56.908Z,19.44
2022-11-04T05:12:56.909Z,19.47
2022-11-04T05:13:56.991Z,19.51
2022-11-04T05:14:57.075Z,19.54
2022-11-04T05:15:57.187Z,19.58
2022-11-04T05:16:57.268Z,19.63
2022-11-04T05:17:57.374Z,19.67
2022-11-04T05:18:57.436Z,19.71
2022-11-04T05:19:57.533Z,19.75
2022-11-04T05:20:57.632Z,19.78
2022-11-04T05:21:57.714Z,19.82
2022-11-04T05:22:57.881Z,19.84
2022-11-04T05:23:57.863Z,19.87
2022-11-04T05:24:57.960Z,19.89
2022-11-04T05:25:58.020Z,19.91
2022-11-04T05:26:58.082Z,19.93
2022-11-04T05:27:58.164Z,19.95
2022-11-04T05:28:58.361Z,19.97
2022-11-04T05:29:58.324Z,19.99
2022-11-04T05:30:58.421Z,20.00
2022-11-04T05:32:04.446Z,20.01
2022-11-04T05:33:01.734Z,20.02
2022-11-04T05:33:58.718Z,20.03
2022-11-04T05:34:58.701Z,20.03
2022-11-04T05:35:58.796Z,20.05
2022-11-04T05:36:58.870Z,20.06
2022-11-04T05:37:58.940Z,20.08
2022-11-04T05:38:58.995Z,20.09
2022-11-04T05:39:59.212Z,20.10
2022-11-04T05:40:59.184Z,20.10
2022-11-04T05:41:59.272Z,20.10
2022-11-04T05:42:59.327Z,20.11
2022-11-04T05:43:59.405Z,20.11
2022-11-04T05:44:59.504Z,20.12
2022-11-04T05:45:59.560Z,20.13
2022-11-04T05:46:59.630Z,20.14
2022-11-04T05:47:59.739Z,20.14
2022-11-04T05:48:59.817Z,20.15
2022-11-04T05:49:59.920Z,20.16
2022-11-04T05:50:59.993Z,20.17
2022-11-04T05:52:00.077Z,20.17
2022-11-04T05:53:00.154Z,20.18
2022-11-04T05:54:00.252Z,20.18
2022-11-04T05:55:00.345Z,20.20
2022-11-04T05:56:00.446Z,20.21
2022-11-04T05:57:00.666Z,20.22
2022-11-04T05:58:00.607Z,20.23
2022-11-04T05:59:00.661Z,20.23
2022-11-04T06:00:00.751Z,20.24
2022-11-04T06:01:00.828Z,20.24
2022-11-04T06:02:01.119Z,20.25
2022-11-04T06:03:12.049Z,20.26
2022-11-04T06:04:01.097Z,20.26
2022-11-04T06:05:01.189Z,20.26
2022-11-04T06:06:01.268Z,20.27
2022-11-04T06:07:01.324Z,20.28
2022-11-04T06:08:01.422Z,20.29
2022-11-04T06:09:01.602Z,20.30
2022-11-04T06:10:01.655Z,20.31
2022-11-04T06:11:01.632Z,20.32
2022-11-04T06:12:01.993Z,20.33
2022-11-04T06:13:01.791Z,20.34
2022-11-04T06:14:02.004Z,20.34
2022-11-04T06:15:02.108Z,20.35
2022-11-04T06:16:02.052Z,20.35
2022-11-04T06:17:02.220Z,20.36
2022-11-04T06:18:02.263Z,20.37
2022-11-04T06:19:06.114Z,20.38
2022-11-04T06:20:02.399Z,20.38
2022-11-04T06:21:02.492Z,20.38
2022-11-04T06:22:02.650Z,20.38
2022-11-04T06:23:02.672Z,20.39
2022-11-04T06:24:02.695Z,20.39
2022-11-04T06:25:03.118Z,20.40
2022-11-04T06:26:03.011Z,20.40
2022-11-04T06:27:02.990Z,20.41
2022-11-04T06:28:03.030Z,20.42
2022-11-04T06:29:03.134Z,20.42
2022-11-04T06:30:03.218Z,20.42
2022-11-04T06:31:03.327Z,20.43
2022-11-04T06:32:03.395Z,20.43
2022-11-04T06:33:03.468Z,20.44
2022-11-04T06:34:09.657Z,20.44
2022-11-04T06:35:03.591Z,20.44
2022-11-04T06:36:03.663Z,20.44
2022-11-04T06:37:03.792Z,20.45
2022-11-04T06:38:03.895Z,20.46
2022-11-04T06:39:05.031Z,20.46
2022-11-04T06:40:04.022Z,20.47
2022-11-04T06:42:04.198Z,20.48
2022-11-04T06:43:04.382Z,20.48
2022-11-04T06:44:04.695Z,20.49
2022-11-04T06:45:04.475Z,20.49
2022-11-04T06:46:04.547Z,20.50
2022-11-04T06:47:04.753Z,20.50
2022-11-04T06:48:04.751Z,20.50
2022-11-04T06:49:04.832Z,20.51
2022-11-04T06:50:04.917Z,20.51
2022-11-04T06:51:05.011Z,20.52
2022-11-04T06:52:05.120Z,20.52
2022-11-04T06:53:05.236Z,20.52
2022-11-04T06:54:05.359Z,20.53
2022-11-04T06:55:05.346Z,20.53
2022-11-04T06:56:05.423Z,20.54
2022-11-04T06:57:05.525Z,20.54
2022-11-04T06:58:05.619Z,20.54
2022-11-04T06:59:05.727Z,20.54
2022-11-04T07:00:05.793Z,20.54
2022-11-04T07:01:12.616Z,20.54
2022-11-04T07:02:06.100Z,20.54
2022-11-04T07:03:06.268Z,20.54
2022-11-04T07:04:06.083Z,20.55
2022-11-04T07:05:12.562Z,20.56
2022-11-04T07:06:06.252Z,20.57
2022-11-04T07:07:06.282Z,20.57
2022-11-04T07:08:06.595Z,20.57
2022-11-04T07:09:06.466Z,20.58
2022-11-04T07:10:06.560Z,20.59
2022-11-04T07:11:06.770Z,20.59
2022-11-04T07:12:06.750Z,20.59
2022-11-04T07:13:06.813Z,20.60
2022-11-04T07:14:06.924Z,20.60
2022-11-04T07:15:06.972Z,20.61
2022-11-04T07:16:07.084Z,20.61
2022-11-04T07:17:07.188Z,20.61
2022-11-04T07:18:07.608Z,20.62
2022-11-04T07:19:07.299Z,20.62
2022-11-04T07:20:07.360Z,20.62
2022-11-04T07:21:10.100Z,20.62
2022-11-04T07:22:07.633Z,20.62
2022-11-04T07:23:07.571Z,20.61
2022-11-04T07:24:07.629Z,20.61
2022-11-04T07:25:07.689Z,20.61
2022-11-04T07:26:07.769Z,20.62
2022-11-04T07:27:07.883Z,20.62
2022-11-04T07:28:08.322Z,20.62
2022-11-04T07:29:08.027Z,20.62
2022-11-04T07:30:08.084Z,20.61
2022-11-04T07:31:08.175Z,20.61
2022-11-04T07:32:08.276Z,20.61
2022-11-04T07:33:08.369Z,20.61
2022-11-04T07:34:08.532Z,20.61
2022-11-04T07:35:08.512Z,20.61
2022-11-04T07:36:14.562Z,20.61
2022-11-04T07:37:08.670Z,20.60
2022-11-04T07:38:09.101Z,20.60
2022-11-04T07:39:08.827Z,20.60
2022-11-04T07:40:08.943Z,20.59
2022-11-04T07:41:09.005Z,20.59
2022-11-04T07:42:09.097Z,20.59
2022-11-04T07:43:09.185Z,20.58
2022-11-04T07:44:09.263Z,20.58
2022-11-04T07:45:09.363Z,20.57
2022-11-04T07:46:09.544Z,20.56
2022-11-04T07:47:09.520Z,20.56
2022-11-04T07:48:09.944Z,20.54
2022-11-04T07:49:09.654Z,20.52
2022-11-04T07:50:11.343Z,20.51
2022-11-04T07:51:09.819Z,20.49
2022-11-04T07:52:09.995Z,20.47
2022-11-04T07:53:10.413Z,20.45
2022-11-04T07:54:10.059Z,20.43
2022-11-04T07:55:10.178Z,20.43
2022-11-04T07:56:10.255Z,20.42
2022-11-04T07:57:10.353Z,20.41
2022-11-04T07:58:10.479Z,20.40
2022-11-04T07:59:10.545Z,20.40
2022-11-04T08:00:10.613Z,20.40
2022-11-04T08:01:10.710Z,20.39
2022-11-04T08:02:10.937Z,20.38
2022-11-04T08:03:11.406Z,20.37
2022-11-04T08:04:11.086Z,20.34
2022-11-04T08:05:11.058Z,20.31
2022-11-04T08:06:11.243Z,20.29
2022-11-04T08:07:17.207Z,20.27
2022-11-04T08:08:11.317Z,20.24
2022-11-04T08:09:11.451Z,20.22
2022-11-04T08:10:11.550Z,20.23
2022-11-04T08:11:16.796Z,20.24
2022-11-04T08:12:11.642Z,20.24
2022-11-04T08:13:12.019Z,20.25
2022-11-04T08:14:11.765Z,20.25
2022-11-04T08:15:11.852Z,20.25
2022-11-04T08:16:11.945Z,20.25
2022-11-04T08:17:12.026Z,20.24
2022-11-04T08:18:12.104Z,20.22
2022-11-04T08:19:12.164Z,20.20
2022-11-04T08:20:12.273Z,20.19
2022-11-04T08:21:12.380Z,20.19
2022-11-04T08:22:12.461Z,20.19
2022-11-04T08:23:12.583Z,20.19
2022-11-04T08:24:12.605Z,20.18
2022-11-04T08:25:12.684Z,20.17
2022-11-04T08:26:12.787Z,20.16
2022-11-04T08:27:12.856Z,20.16
2022-11-04T08:28:13.011Z,20.16
2022-11-04T08:29:12.971Z,20.17
2022-11-04T08:30:13.057Z,20.18
2022-11-04T08:31:13.135Z,20.19
2022-11-04T08:32:13.239Z,20.19
2022-11-04T08:33:13.333Z,20.20
2022-11-04T08:34:13.444Z,20.19
2022-11-04T08:35:13.518Z,20.18
2022-11-04T08:36:13.617Z,20.17
2022-11-04T08:37:13.678Z,20.17
2022-11-04T08:38:19.772Z,20.18
2022-11-04T08:39:13.952Z,20.19
2022-11-04T08:40:13.978Z,20.21
2022-11-04T08:41:14.021Z,20.22
2022-11-04T08:42:14.087Z,20.24
2022-11-04T08:43:14.188Z,20.25
2022-11-04T08:44:14.279Z,20.26
2022-11-04T08:45:14.390Z,20.28
2022-11-04T08:46:14.425Z,20.30
2022-11-04T08:47:14.515Z,20.31
2022-11-04T08:48:14.609Z,20.33
2022-11-04T08:49:19.623Z,20.34
2022-11-04T08:50:14.899Z,20.35
2022-11-04T08:51:14.861Z,20.36
2022-11-04T08:52:14.950Z,20.38
2022-11-04T08:53:15.010Z,20.39
2022-11-04T08:54:15.104Z,20.40
2022-11-04T08:55:15.191Z,20.41
2022-11-04T08:56:15.387Z,20.42
2022-11-04T08:57:15.359Z,20.43
2022-11-04T08:58:15.475Z,20.44
2022-11-04T08:59:15.544Z,20.45
2022-11-04T09:00:15.636Z,20.46
2022-11-04T09:01:15.844Z,20.47
2022-11-04T09:02:15.906Z,20.47
2022-11-04T09:03:15.895Z,20.49
2022-11-04T09:04:16.087Z,20.50
2022-11-04T09:05:16.071Z,20.51
2022-11-04T09:06:16.704Z,20.52
2022-11-04T09:07:16.357Z,20.53
2022-11-04T09:08:16.332Z,20.54
2022-11-04T09:09:22.368Z,20.55
2022-11-04T09:10:16.487Z,20.56
2022-11-04T09:11:16.589Z,20.56
2022-11-04T09:12:16.807Z,20.57
2022-11-04T09:13:16.775Z,20.58
2022-11-04T09:14:16.833Z,20.60
2022-11-04T09:15:16.892Z,20.61
2022-11-04T09:16:16.973Z,20.61
2022-11-04T09:17:17.081Z,20.62
2022-11-04T09:18:17.248Z,20.63
2022-11-04T09:19:17.231Z,20.64
2022-11-04T09:20:17.331Z,20.64
2022-11-04T09:21:17.418Z,20.64
2022-11-04T09:22:17.487Z,20.65
2022-11-04T09:23:17.593Z,20.65
2022-11-04T09:24:17.654Z,20.65
2022-11-04T09:25:17.754Z,20.65
2022-11-04T09:26:17.811Z,20.66
2022-11-04T09:27:17.914Z,20.66
2022-11-04T09:28:18.013Z,20.66
2022-11-04T09:29:18.089Z,20.67
2022-11-04T09:30:18.170Z,20.67
2022-11-04T09:31:18.251Z,20.68
2022-11-04T09:32:18.346Z,20.69
2022-11-04T09:33:18.419Z,20.69
2022-11-04T09:34:18.521Z,20.70
2022-11-04T09:35:18.604Z,20.70
2022-11-04T09:36:18.696Z,20.70
2022-11-04T09:37:18.823Z,20.70
2022-11-04T09:38:18.945Z,20.70
2022-11-04T09:39:18.952Z,20.70
2022-11-04T09:40:25.257Z,20.70
2022-11-04T09:41:19.155Z,20.70
2022-11-04T09:42:19.244Z,20.70
2022-11-04T09:43:19.345Z,20.71
2022-11-04T09:44:19.444Z,20.71
2022-11-04T09:45:22.523Z,20.71
2022-11-04T09:46:19.707Z,20.71
2022-11-04T09:47:21.899Z,20.70
2022-11-04T09:48:19.751Z,20.70
2022-11-04T09:49:19.852Z,20.70
2022-11-04T09:50:19.995Z,20.70
2022-11-04T09:51:39.829Z,20.70
2022-11-04T09:52:20.104Z,20.69
2022-11-04T09:53:20.147Z,20.69
2022-11-04T09:54:20.240Z,20.68
2022-11-04T09:55:20.323Z,20.68
2022-11-04T09:56:20.421Z,20.69
2022-11-04T09:57:20.528Z,20.69
2022-11-04T09:58:20.690Z,20.68
2022-11-04T09:59:20.685Z,20.68
2022-11-04T10:00:20.886Z,20.67
2022-11-04T10:01:20.982Z,20.67
2022-11-04T10:02:22.447Z,20.66
2022-11-04T10:03:21.150Z,20.66
2022-11-04T10:04:21.128Z,20.66
2022-11-04T10:05:21.226Z,20.66
2022-11-04T10:06:21.328Z,20.66
2022-11-04T10:07:21.406Z,20.66
2022-11-04T10:08:21.589Z,20.66
2022-11-04T10:09:21.575Z,20.66
2022-11-04T10:10:21.641Z,20.66
2022-11-04T10:11:27.694Z,20.67
2022-11-04T10:12:21.818Z,20.67
2022-11-04T10:13:21.911Z,20.67
2022-11-04T10:14:22.107Z,20.67
2022-11-04T10:15:22.107Z,20.67
2022-11-04T10:16:22.201Z,20.67
2022-11-04T10:17:22.260Z,20.67
2022-11-04T10:18:22.355Z,20.66
2022-11-04T10:19:22.414Z,20.67
2022-11-04T10:20:22.606Z,20.67
2022-11-04T10:21:22.591Z,20.68
2022-11-04T10:22:22.693Z,20.70
2022-11-04T10:23:22.791Z,20.70
2022-11-04T10:24:22.885Z,20.71
2022-11-04T10:25:22.984Z,20.71
2022-11-04T10:26:23.099Z,20.71
2022-11-04T10:27:23.236Z,20.70
2022-11-04T10:28:23.413Z,20.69
2022-11-04T10:29:23.327Z,20.69
2022-11-04T10:30:23.428Z,20.69
2022-11-04T10:31:23.570Z,20.69
2022-11-04T10:32:23.572Z,20.69
2022-11-04T10:33:23.660Z,20.69
2022-11-04T10:34:23.757Z,20.69
2022-11-04T10:35:23.830Z,20.69
2022-11-04T10:36:24.566Z,20.69
2022-11-04T10:37:24.032Z,20.69
2022-11-04T10:38:24.098Z,20.68
2022-11-04T10:39:24.149Z,20.67
2022-11-04T10:40:24.259Z,20.66
2022-11-04T10:41:24.354Z,20.67
2022-11-04T10:42:30.704Z,20.67
2022-11-04T10:43:24.538Z,20.68
2022-11-04T10:44:24.592Z,20.68
2022-11-04T10:45:24.702Z,20.68
2022-11-04T10:46:24.793Z,20.69
2022-11-04T10:47:24.833Z,20.69
2022-11-04T10:48:24.916Z,20.70
2022-11-04T10:49:24.987Z,20.70
2022-11-04T10:50:29.722Z,20.72
2022-11-04T10:51:25.125Z,20.73
2022-11-04T10:52:25.216Z,20.73
2022-11-04T10:53:25.278Z,20.74
2022-11-04T10:54:25.494Z,20.75
2022-11-04T10:55:25.443Z,20.76
2022-11-04T10:56:25.595Z,20.76
2022-11-04T10:57:25.617Z,20.77
2022-11-04T10:58:25.715Z,20.77
2022-11-04T10:59:25.927Z,20.78
2022-11-04T11:00:26.174Z,20.78
2022-11-04T11:01:26.108Z,20.78
2022-11-04T11:02:26.101Z,20.78
2022-11-04T11:03:26.119Z,20.79
2022-11-04T11:04:26.215Z,20.79
2022-11-04T11:05:26.387Z,20.79
2022-11-04T11:06:26.349Z,20.78
2022-11-04T11:07:27.076Z,20.79
2022-11-04T11:08:26.529Z,20.79
2022-11-04T11:09:26.609Z,20.79
2022-11-04T11:10:26.805Z,20.79
2022-11-04T11:11:26.787Z,20.79
2022-11-04T11:12:49.935Z,20.79
2022-11-04T11:13:32.932Z,20.78
2022-11-04T11:14:27.034Z,20.76
2022-11-04T11:15:27.134Z,20.75
2022-11-04T11:16:27.238Z,20.74
2022-11-04T11:17:27.309Z,20.73
2022-11-04T11:18:27.404Z,20.72
2022-11-04T11:19:27.472Z,20.71
2022-11-04T11:20:27.537Z,20.71
2022-11-04T11:21:27.729Z,20.71
2022-11-04T11:22:27.716Z,20.71
2022-11-04T11:23:27.797Z,20.71
2022-11-04T11:24:27.875Z,20.70
2022-11-04T11:25:27.982Z,20.70
2022-11-04T11:26:28.060Z,20.69
2022-11-04T11:27:28.186Z,20.68
2022-11-04T11:28:28.246Z,20.67
2022-11-04T11:29:28.351Z,20.66
2022-11-04T11:30:28.442Z,20.66
2022-11-04T11:31:28.503Z,20.66
2022-11-04T11:32:28.586Z,20.65
2022-11-04T11:33:28.646Z,20.65
2022-11-04T11:34:28.701Z,20.65
2022-11-04T11:35:28.770Z,20.64
2022-11-04T11:36:28.870Z,20.64
2022-11-04T11:37:28.924Z,20.63
2022-11-04T11:38:29.140Z,20.63
2022-11-04T11:39:29.094Z,20.62
2022-11-04T11:40:29.178Z,20.62
2022-11-04T11:41:29.275Z,20.61
2022-11-04T11:42:29.335Z,20.61
2022-11-04T11:43:29.507Z,20.60
2022-11-04T11:44:35.817Z,20.60
2022-11-04T11:45:29.582Z,20.60
2022-11-04T11:46:29.651Z,20.59
2022-11-04T11:47:29.717Z,20.59
2022-11-04T11:48:29.817Z,20.58
2022-11-04T11:49:29.905Z,20.57
2022-11-04T11:50:30.000Z,20.57
2022-11-04T11:51:32.188Z,20.57
2022-11-04T11:52:30.159Z,20.56
2022-11-04T11:53:30.250Z,20.55
2022-11-04T11:54:30.443Z,20.55
2022-11-04T11:55:30.557Z,20.55
2022-11-04T11:56:51.745Z,20.55
2022-11-04T11:57:30.602Z,20.54
2022-11-04T12:00:38.367Z,20.53
2022-11-04T12:01:31.011Z,20.52
2022-11-04T12:02:31.256Z,20.52
2022-11-04T12:06:18.716Z,20.52
2022-11-04T12:06:24.627Z,20.46
2022-11-04T12:09:26.564Z,20.43
2022-11-04T12:10:49.098Z,20.45
2022-11-04T12:11:25.022Z,20.46
2022-11-04T12:12:25.095Z,20.47
2022-11-04T12:13:26.462Z,20.48
2022-11-04T12:14:25.357Z,20.48
2022-11-04T12:15:31.313Z,20.49
2022-11-04T12:16:25.421Z,20.49
2022-11-04T12:17:25.511Z,20.49
2022-11-04T12:18:25.577Z,20.49
2022-11-04T12:19:25.778Z,20.49
2022-11-04T12:20:25.776Z,20.49
2022-11-04T12:21:25.856Z,20.49
2022-11-04T12:22:25.953Z,20.49
2022-11-04T12:23:26.049Z,20.49
2022-11-04T12:24:26.114Z,20.51
2022-11-04T12:25:26.292Z,20.52
2022-11-04T12:26:26.277Z,20.54
2022-11-04T12:27:26.383Z,20.55
2022-11-04T12:28:26.447Z,20.56
2022-11-04T12:29:26.679Z,20.57
2022-11-04T12:30:33.814Z,20.58
2022-11-04T12:31:26.667Z,20.58
2022-11-04T12:32:26.712Z,20.58
2022-11-04T12:33:26.808Z,20.59
2022-11-04T12:34:26.894Z,20.58
2022-11-04T12:35:27.082Z,20.58
2022-11-04T12:36:27.192Z,20.58
2022-11-04T12:37:27.164Z,20.58
2022-11-04T12:38:27.346Z,20.57
2022-11-04T12:39:27.379Z,20.57
2022-11-04T12:40:27.488Z,20.56
2022-11-04T12:41:58.878Z,20.56
2022-11-04T12:42:32.701Z,20.56
2022-11-04T12:43:27.749Z,20.56
2022-11-04T12:44:27.797Z,20.56
2022-11-04T12:45:27.867Z,20.56
2022-11-04T12:46:34.377Z,20.56
2022-11-04T12:47:28.030Z,20.55
2022-11-04T12:48:28.091Z,20.55
2022-11-04T12:49:28.184Z,20.55
2022-11-04T12:50:28.239Z,20.55
2022-11-04T12:51:28.344Z,20.56
2022-11-04T12:52:28.449Z,20.56
2022-11-04T12:53:28.536Z,20.56
2022-11-04T12:54:28.639Z,20.55
2022-11-04T12:55:28.689Z,20.55
2022-11-04T12:56:28.792Z,20.55
2022-11-04T12:57:28.877Z,20.54
2022-11-04T12:58:28.983Z,20.55
2022-11-04T12:59:29.049Z,20.55
2022-11-04T13:00:29.141Z,20.56